Station: West Angelas  

  Atmospheric Gas Attenuation - ITU Rec 676-11   ----------------- dB/100km -----------------
Date Time Temp RH % AH g/m3 Dew Point Wind Direction Speed kph Gust kph Barometer mB Rainfall Since 9am 24GHz 47GHz 76GHz 122GHz 134GHz 241GHz
11/05 05:10 12.2 39 4.21 -1.1 11 15 1022.1 0 10.3 20.0 24.4 63.1 46.4 155.6
11/05 05:00 12.5 39 4.29 -1.1 11 19 1018.1 0 10.5 19.9 24.5 63.3 46.9 157.7
11/05 04:50 12.9 37 4.17 -1.2 13 15 1021.7 0 10.2 19.8 24.1 62.2 45.5 152.6
11/05 04:40 13.1 37 4.22 -1.2 15 19 1021.6 0 10.3 19.8 24.2 62.5 46.0 154.2
11/05 04:30 13.3 36 4.16 -1.4 13 17 1017.9 0 10.2 19.5 23.8 61.5 45.0 151.0
11/05 04:20 13.6 35 4.12 -1.3 15 19 1021.2 0 10.1 19.5 23.7 61.2 44.5 149.3
11/05 04:10 14.3 34 4.18 -1.3 13 15 1020.9 0 10.2 19.5 23.7 61.2 44.8 150.3
11/05 04:00 14.5 34 4.23 -1.2 15 22 1017.8 0 10.3 19.4 23.7 61.3 45.1 151.5
11/05 03:50 14.2 34 4.15 -1.3 15 20 1021.1 0 10.1 19.5 23.6 61.0 44.5 149.4
11/05 03:40 13.2 36 4.13 -1.6 15 19 1021.4 0 10.1 19.6 23.8 61.6 44.9 150.5
11/05 03:30 12.3 37 4.02 -2 7 13 1017.9 0 9.9 19.6 23.6 61.0 44.0 147.3
11/05 03:20 12.3 36 3.91 -2.4 9 9 1021.6 0 9.7 19.5 23.3 60.3 42.9 143.4
11/05 03:10 12.5 35 3.85 -2.3 9 11 1021.6 0 9.6 19.4 23.1 59.6 42.1 140.7
11/05 03:00 11.9 36 3.81 -2.7 7 9 1017.9 0 9.5 19.4 23.0 59.4 41.8 139.7
11/05 02:50 12.4 34 3.72 -2.9 7 9 1021.7 0 9.3 19.3 22.7 58.5 40.7 135.8
11/05 02:40 12.3 34 3.69 -3 9 9 1021.8 0 9.2 19.2 22.6 58.3 40.5 134.8
11/05 02:30 12.6 33 3.65 -3.2 9 13 1018.1 0 9.1 19.0 22.3 57.5 39.7 132.3
11/05 02:20 12.5 33 3.63 -3.3 9 11 1021.8 0 9.1 19.1 22.3 57.6 39.7 132.1
11/05 02:10 12.4 32 3.5 -3.6 7 7 1021.8 0 8.8 19.0 21.9 56.6 38.3 127.2
11/05 02:00 12.6 32 3.54 -3.6 13 17 1018.1 0 8.9 18.9 21.9 56.5 38.5 128.0
11/05 01:50 12.4 32 3.5 -3.9 13 15 1022 0 8.8 19.0 21.9 56.6 38.3 127.2
11/05 01:40 12.6 32 3.54 -3.7 15 15 1022.2 0 8.9 19.0 22.0 56.8 38.7 128.5
11/05 01:30 12.3 32 3.48 -3.9 9 13 1018.4 0 8.8 18.8 21.8 56.2 38.0 126.2
11/05 01:20 12.5 31 3.41 -4 9 9 1022.2 0 8.6 18.8 21.6 55.7 37.3 123.6
11/05 01:10 12.9 30 3.38 -4 9 11 1022.2 0 8.6 18.7 21.4 55.2 36.8 121.9
11/05 01:00 12.8 31 3.47 -3.9 13 15 1018.5 0 8.8 18.7 21.6 55.8 37.7 125.1
11/05 00:50 13 30 3.4 -4.2 11 13 1022.2 0 8.6 18.7 21.5 55.3 37.0 122.5
11/05 00:40 13 30 3.4 -4.2 11 13 1022.3 0 8.6 18.7 21.5 55.3 37.0 122.5
11/05 00:30 12.8 30 3.36 -4.3 9 11 1018.8 0 8.5 18.6 21.3 54.8 36.5 120.9
11/05 00:20 12.6 30 3.32 -4.6 7 9 1022.5 0 8.4 18.7 21.3 54.9 36.3 120.1
11/05 00:10 12.9 29 3.27 -4.6 7 9 1022.5 0 8.3 18.6 21.1 54.2 35.6 117.7
11/05 00:00 12.8 29 3.25 -4.8 7 11 1019.1 0 8.3 18.5 20.9 53.9 35.3 116.7
10/05 23:50 13.2 28 3.22 -4.7 9 11 1022.6 0 8.2 18.5 20.8 53.6 34.9 115.4
10/05 23:40 13.1 28 3.2 -4.7 9 11 1022.8 0 8.2 18.5 20.8 53.5 34.8 114.8
10/05 23:30 13.2 28 3.22 -4.9 9 11 1019.3 0 8.2 18.4 20.7 53.4 34.8 115.0
10/05 23:20 13.3 27 3.12 -5 7 7 1022.9 0 8.0 18.3 20.5 52.7 33.8 111.5
10/05 23:10 13.8 27 3.22 -4.9 9 11 1022.9 0 8.2 18.4 20.7 53.2 34.7 114.6
10/05 23:00 14.3 26 3.19 -4.9 9 13 1019.6 0 8.1 18.1 20.4 52.4 34.0 112.5
10/05 22:50 14.5 26 3.23 -4.9 9 13 1022.8 0 8.2 18.2 20.6 52.9 34.5 114.0
10/05 22:40 14.5 26 3.23 -4.9 11 13 1022.8 0 8.2 18.2 20.6 52.9 34.5 114.0
10/05 22:30 14.9 25 3.19 -4.9 11 13 1019.6 0 8.1 18.0 20.2 52.1 33.8 111.7
10/05 22:20 14.9 25 3.19 -5 9 11 1022.5 0 8.1 18.1 20.3 52.3 33.9 112.0
10/05 22:10 14.9 25 3.19 -5 11 13 1022.5 0 8.1 18.1 20.3 52.3 33.9 112.0
10/05 22:00 15.3 24 3.13 -5.1 9 13 1019.4 0 8.0 17.8 20.0 51.3 33.0 108.9
10/05 21:50 15.7 24 3.21 -4.9 11 13 1022.2 0 8.1 18.0 20.2 51.9 33.8 111.6
10/05 21:40 14.9 24 3.06 -5.1 7 9 1022.3 0 7.8 17.9 19.9 51.1 32.5 107.1
10/05 21:30 15.3 24 3.13 -5.1 9 11 1019.2 0 8.0 17.8 19.9 51.3 33.0 108.9
10/05 21:20 15.7 23 3.08 -5 9 9 1022 0 7.9 17.8 19.8 50.8 32.4 106.8
10/05 21:10 15.4 24 3.15 -5.1 9 11 1022 0 8.0 17.9 20.1 51.6 33.3 109.8
10/05 21:00 15.5 24 3.17 -5 9 11 1019.1 0 8.1 17.8 20.0 51.5 33.3 110.1
10/05 20:50 15.8 23 3.1 -5.2 11 11 1021.8 0 7.9 17.8 19.8 50.9 32.6 107.4
10/05 20:40 15.8 23 3.1 -5.1 9 11 1021.8 0 7.9 17.8 19.8 50.9 32.6 107.4
10/05 20:30 16.1 23 3.15 -5 9 11 1019.1 0 8.0 17.7 19.8 50.9 32.9 108.6
10/05 20:20 16.2 23 3.17 -5 9 9 1021.6 0 8.0 17.8 19.9 51.2 33.1 109.4
10/05 20:10 16.5 22 3.09 -5 11 11 1021.3 0 7.9 17.6 19.6 50.3 32.2 106.1
10/05 20:00 16.6 22 3.11 -5.2 9 11 1018.8 0 7.9 17.6 19.6 50.3 32.3 106.4
10/05 19:50 17 22 3.18 -5 9 9 1021.1 0 8.0 17.6 19.8 50.8 32.9 108.7
10/05 19:40 17.2 21 3.08 -5.2 9 11 1020.8 0 7.8 17.5 19.4 49.8 31.8 104.8
10/05 19:30 17.6 21 3.15 -5 11 17 1018.4 0 8.0 17.4 19.5 50.0 32.3 106.6
10/05 19:20 17.5 20 2.98 -5.4 9 11 1020.5 0 7.6 17.3 19.0 48.8 30.7 100.9
10/05 19:10 18.1 19 2.94 -5.4 9 11 1020.2 0 7.5 17.1 18.8 48.1 30.0 98.7
10/05 19:00 18.5 19 3.01 -5.5 11 17 1017.9 0 7.6 17.1 18.8 48.3 30.5 100.5
10/05 18:50 18.7 19 3.04 -5.4 11 15 1019.7 0 7.7 17.1 18.9 48.5 30.8 101.5
10/05 18:40 19 18 2.93 -5.4 11 15 1019.5 0 7.5 16.9 18.5 47.5 29.6 97.3
10/05 18:30 19.3 18 2.99 -5.6 13 19 1017.6 0 7.6 16.9 18.6 47.7 30.0 98.8
10/05 18:20 19.4 18 3 -5.7 13 15 1019.2 0 7.6 16.9 18.6 47.8 30.1 99.2
10/05 18:10 19.6 17 2.87 -5.8 13 15 1019 0 7.3 16.7 18.2 46.6 28.8 94.5
10/05 18:00 20 17 2.94 -5.8 11 19 1017.3 0 7.5 16.7 18.3 46.9 29.3 96.3
10/05 17:50 20.5 16 2.85 -6.1 13 17 1018.5 0 7.3 16.5 17.9 45.9 28.3 92.7
10/05 17:40 20.9 16 2.91 -6 15 19 1018.3 0 7.4 16.5 18.0 46.2 28.7 94.3
10/05 17:30 21.1 15 2.76 -6.5 15 22 1016.9 0 7.1 16.3 17.5 44.8 27.2 88.9
10/05 17:20 21.4 14 2.62 -6.7 15 20 1017.9 0 6.8 16.1 17.1 43.7 25.8 84.0
10/05 17:10 21.6 14 2.66 -6.9 15 20 1017.8 0 6.9 16.1 17.1 43.9 26.1 85.2
10/05 17:00 22 13 2.52 -7.6 17 28 1016.6 0 6.6 15.8 16.6 42.5 24.6 80.0
10/05 16:50 22.2 13 2.55 -7.6 20 28 1017.4 0 6.6 15.9 16.7 42.7 24.9 80.9
10/05 16:40 22.3 13 2.57 -7.7 22 28 1017.3 0 6.6 15.9 16.7 42.8 25.0 81.5
10/05 16:30 22.6 12 2.41 -8.2 17 28 1016.4 0 6.3 15.6 16.2 41.4 23.4 75.9
10/05 16:20 22.6 12 2.41 -8 15 20 1017.1 0 6.3 15.6 16.2 41.4 23.4 75.9
10/05 16:10 22.8 12 2.44 -8.1 19 26 1017 0 6.4 15.6 16.3 41.6 23.7 76.7
10/05 16:00 22.6 13 2.61 -7.2 19 26 1016.4 0 6.7 15.8 16.8 42.9 25.3 82.4
10/05 15:50 22.9 12 2.45 -8.3 19 24 1017 0 6.4 15.6 16.3 41.6 23.7 77.0
10/05 15:40 23.2 11 2.29 -8.8 20 26 1016.9 0 6.1 15.4 15.8 40.3 22.2 71.5
10/05 15:30 23.2 12 2.49 -7.7 17 30 1016.2 0 6.5 15.6 16.3 41.7 24.0 77.9
10/05 15:20 23.2 12 2.49 -7.3 24 32 1016.7 0 6.5 15.6 16.3 41.7 24.0 78.0
10/05 15:10 23.1 12 2.48 -7.3 24 30 1016.7 0 6.4 15.6 16.3 41.7 23.9 77.7
10/05 15:00 23.5 13 2.75 -6.5 15 24 1016 0 7.0 15.8 17.0 43.5 26.3 86.1
10/05 14:50 22.9 13 2.66 -6.5 19 28 1016.7 0 6.8 15.9 16.9 43.1 25.7 83.8
10/05 14:40 23.2 14 2.91 -5.8 11 17 1016.8 0 7.3 16.1 17.5 44.9 27.9 91.7
10/05 14:30 23.1 14 2.89 -5.8 19 28 1016.2 0 7.3 16.1 17.4 44.7 27.7 91.1
10/05 14:20 23.1 14 2.89 -5.6 15 19 1016.9 0 7.3 16.1 17.5 44.8 27.7 91.2
10/05 14:10 22.8 14 2.84 -6.2 19 24 1017 0 7.2 16.1 17.4 44.6 27.4 89.8
10/05 14:00 22.6 14 2.81 -6.2 17 28 1016.3 0 7.1 16.1 17.3 44.4 27.1 89.0
10/05 13:50 22.7 14 2.83 -6 19 24 1017.1 0 7.2 16.1 17.4 44.5 27.3 89.6
10/05 13:40 23 14 2.88 -6.2 22 28 1017.1 0 7.3 16.1 17.5 44.8 27.7 91.0
10/05 13:30 22.6 14 2.81 -6.2 20 33 1016.5 0 7.1 16.1 17.3 44.4 27.1 89.0
10/05 13:20 22.2 15 2.94 -5.9 19 20 1017.6 0 7.4 16.3 17.8 45.7 28.5 93.9
10/05 13:10 22.2 16 3.14 -4.9 13 17 1017.8 0 7.8 16.6 18.4 47.2 30.4 100.6
10/05 13:00 21.8 16 3.07 -5.1 20 33 1017.1 0 7.7 16.5 18.3 46.9 29.9 98.6
10/05 12:50 22 16 3.11 -4.9 15 19 1018.2 0 7.8 16.6 18.4 47.1 30.2 99.9
10/05 12:40 22.1 16 3.12 -4.7 15 24 1018.3 0 7.8 16.6 18.4 47.1 30.3 100.1

Last Refresh: 11-May-2026 06:53:34

Bureau of Meteorology